Pagrindinis puslapis
METAR-TAF:

METAR-TAF

Oro uostai :

Krajova, Rumunija

platuma: 44-14N, ilguma: 023-52E, Aukštis: 192 m

Dabartinis oras

Ataskaita buvo paskelbta 14 minutes, ne 20:30 UTC
Vėjas 6 kt iš Vakarų
Temperatūra -3°C
Drėgmė 86%
Slėgis 1042 hPa
Matomumas 10 km arba daugiau
nėra debesų žemiau 1500 m ir nėra kamuolinių lietaus debesų

METAR: LRCV 202030Z 27006KT CAVOK M03/M05 Q1042

Laikas: 22:44 (20:44 UTC)

Prognozė

Ataskaita buvo paskelbta 44 minutes, ne 20:00 UTC
Prognozė galioja nuo 20 metu 21 UTC su 21 metu 06 UTC
Vėjas 6 kt iš Vakarų
Matomumas 10 km arba daugiau
nėra debesų žemiau 1500 m ir nėra kamuolinių lietaus debesų
Laikinai
nuo 20 metu 23 UTC su 21 metu 04 UTC
Matomumas: 3000 m
Su prošvaistėmis ne aukštis 1000 ft
rūkana

TAF: LRCV 202000Z 2021/2106 27006KT CAVOK TEMPO 2023/2104 3000 BR BKN010

Orai ataskaitas ir orų prognozės (METAR, TAF).

turimą stotys yra geltonos ir raudonos taškus žemėlapyje.

Perkelti pele per norėdami pamatyti stoties vardą.

Tada spustelėkite, norėdami matyti oro stebėjimo ir prognozės.

Norėdami pakeisti žemėlapį: spustelėkite ant žalios mygtukų su juodo kryžiaus žemyn,; žalią mygtuką su brūkšneliu, jei norite nutolinti; arba žalių rodyklių gretimoms žemėlapius.


METAR-TAF: